South Hanover, Pennsylvania
Current Conditions -  °F | °C
As of 7:56 PM on Tuesday 27 Jan 2015 (Local Time) from KMDT Reporting Station
Scattered Clouds Scattered Clouds  
Wind Chill: 16°   Ceiling: Unl
Heat Index: 27°   Visibility: 10mi
Dew Point: 12°   Wind: 14mph
Humidity: 53%   Direction: 320°NW
Pressure: 29.86"   Gusts: NA
Location:  40.2988°N, 76.709°W
Report Text: KMDT 280056Z 32012KT 10SM FEW100 FEW150 SCT250 M03/M11 A2986 RMK AO2 SLP117 T10281111
Loading
Personal Weather Stations






























Interactive Weather Map New forecast layout! Learn more

10-Day Weather Forecast

Advertisements
Track Severe Weather on mobile